• Join FlightAware (Why Join?)
  • Login
  • US Flag 
02:08PM EDT


 

Airport Tracker/Info


-or-


 

Live Flight TrackerFlight Track Log ✈ N1944E ✈ 23-Aug-2013 ✈ KBIL - KCOD

Flight Track Log - Related Links

Times and Time Zones

All times are in EDT time to prevent confusion due to time zone crossing. See the N1944E flight status page for this flight to view local times or setup timezone preferences in your user account.

Time Position Orientation Groundspeed Altitude Reporting Facility
EDT Latitude Longitude Course Direction KTS MPH feet Rate Location/Type
08:39PM 45.7250 -108.5989 187° South 142 163 6,600  Level Salt Lake Center
08:40PM 45.6864 -108.6172 198° South 135 155 7,800 1,020 Climbing Salt Lake Center
08:41PM 45.6506 -108.6364 201° Southwest 140 161 8,700 960 Climbing Salt Lake Center
08:42PM 45.6150 -108.6444 189° South 132 152 9,800 960 Climbing Salt Lake Center
08:43PM 45.5739 -108.6544 190° South 142 163 10,800 960 Climbing Salt Lake Center
08:44PM 45.5383 -108.6750 202° Southwest 138 159 11,800 600 Climbing Salt Lake Center
08:45PM 45.4919 -108.6914 194° South 164 189 12,100 120 Climbing Salt Lake Center
08:46PM 45.4422 -108.6992 186° South 180 207 12,100  Level Salt Lake Center
08:47PM 45.3883 -108.7131 190° South 183 211 12,100 -60 Level Salt Lake Center
08:48PM 45.3417 -108.7383 201° Southwest 184 212 12,000 -60 Descending Salt Lake Center
08:49PM 45.2911 -108.7664 201° Southwest 181 208 12,000 -60 Level Salt Lake Center
08:50PM 45.2406 -108.7881 197° South 190 219 11,900 -120 Descending Salt Lake Center
08:51PM 45.1864 -108.8092 195° South 190 219 11,800 -60 Descending Salt Lake Center
08:52PM 45.1369 -108.8308 197° South 189 217 11,800  Level Salt Lake Center
08:53PM 45.0853 -108.8503 195° South 182 209 11,900 60 Climbing Salt Lake Center
08:54PM 45.0378 -108.8658 193° South 178 205 12,000  Climbing Salt Lake Center
08:55PM 44.9875 -108.8808 192° South 180 207 12,000 -60 Level Salt Lake Center
08:56PM 44.9356 -108.8892 186° South 184 212 11,900 -60 Descending Salt Lake Center
08:57PM 44.8886 -108.8964 186° South 180 207 11,900 -300 Level Salt Lake Center
08:59PM 44.8417 -108.9114 193° South 179 206 11,400 -540 Descending Salt Lake Center